sensor_id;sensor_type;location;lat;lon;timestamp;P1;durP1;ratioP1;P2;durP2;ratioP2
14121;SDS011;7139;48.114;11.442;2022-11-03T00:00:31;5.70;;;4.37;;
14121;SDS011;7139;48.114;11.442;2022-11-03T00:02:57;7.67;;;4.53;;
14121;SDS011;7139;48.114;11.442;2022-11-03T00:05:25;7.33;;;4.77;;
14121;SDS011;7139;48.114;11.442;2022-11-03T00:08:10;6.30;;;5.10;;
14121;SDS011;7139;48.114;11.442;2022-11-03T00:10:36;5.87;;;5.27;;
14121;SDS011;7139;48.114;11.442;2022-11-03T00:13:03;7.47;;;4.97;;
14121;SDS011;7139;48.114;11.442;2022-11-03T00:15:30;6.07;;;4.83;;
14121;SDS011;7139;48.114;11.442;2022-11-03T00:17:57;5.67;;;4.20;;
14121;SDS011;7139;48.114;11.442;2022-11-03T00:20:23;6.13;;;4.40;;
14121;SDS011;7139;48.114;11.442;2022-11-03T00:22:51;7.30;;;4.27;;
14121;SDS011;7139;48.114;11.442;2022-11-03T00:25:18;6.50;;;3.87;;
14121;SDS011;7139;48.114;11.442;2022-11-03T00:27:45;3.90;;;3.57;;
14121;SDS011;7139;48.114;11.442;2022-11-03T00:30:18;5.37;;;3.50;;
14121;SDS011;7139;48.114;11.442;2022-11-03T00:32:45;4.83;;;3.70;;
14121;SDS011;7139;48.114;11.442;2022-11-03T00:35:12;6.17;;;4.07;;
14121;SDS011;7139;48.114;11.442;2022-11-03T00:37:40;8.30;;;4.00;;
14121;SDS011;7139;48.114;11.442;2022-11-03T00:40:07;6.27;;;4.43;;
14121;SDS011;7139;48.114;11.442;2022-11-03T00:42:35;6.37;;;4.13;;
14121;SDS011;7139;48.114;11.442;2022-11-03T00:45:03;5.77;;;3.93;;
14121;SDS011;7139;48.114;11.442;2022-11-03T00:47:30;7.43;;;4.33;;
14121;SDS011;7139;48.114;11.442;2022-11-03T00:49:57;5.47;;;4.27;;
14121;SDS011;7139;48.114;11.442;2022-11-03T00:52:23;5.97;;;4.10;;
14121;SDS011;7139;48.114;11.442;2022-11-03T00:54:51;5.23;;;3.63;;
14121;SDS011;7139;48.114;11.442;2022-11-03T00:57:18;5.73;;;4.37;;
14121;SDS011;7139;48.114;11.442;2022-11-03T00:59:45;5.23;;;3.87;;
14121;SDS011;7139;48.114;11.442;2022-11-03T01:02:12;5.47;;;4.20;;
14121;SDS011;7139;48.114;11.442;2022-11-03T01:04:38;5.80;;;4.00;;
14121;SDS011;7139;48.114;11.442;2022-11-03T01:07:25;6.67;;;4.30;;
14121;SDS011;7139;48.114;11.442;2022-11-03T01:09:53;6.77;;;3.83;;
14121;SDS011;7139;48.114;11.442;2022-11-03T01:12:19;6.97;;;4.00;;
14121;SDS011;7139;48.114;11.442;2022-11-03T01:14:47;5.93;;;3.93;;
14121;SDS011;7139;48.114;11.442;2022-11-03T01:17:15;5.33;;;4.00;;
14121;SDS011;7139;48.114;11.442;2022-11-03T01:19:44;4.60;;;4.10;;
14121;SDS011;7139;48.114;11.442;2022-11-03T01:22:11;5.40;;;3.67;;
14121;SDS011;7139;48.114;11.442;2022-11-03T01:24:39;6.43;;;4.30;;
14121;SDS011;7139;48.114;11.442;2022-11-03T01:27:07;7.13;;;3.70;;
14121;SDS011;7139;48.114;11.442;2022-11-03T01:29:35;4.93;;;4.17;;
14121;SDS011;7139;48.114;11.442;2022-11-03T01:32:01;5.40;;;4.40;;
14121;SDS011;7139;48.114;11.442;2022-11-03T01:34:28;5.90;;;4.50;;
14121;SDS011;7139;48.114;11.442;2022-11-03T01:36:55;6.23;;;4.67;;
14121;SDS011;7139;48.114;11.442;2022-11-03T01:39:22;5.47;;;4.80;;
14121;SDS011;7139;48.114;11.442;2022-11-03T01:41:50;5.63;;;4.30;;
14121;SDS011;7139;48.114;11.442;2022-11-03T01:47:14;7.30;;;5.30;;
14121;SDS011;7139;48.114;11.442;2022-11-03T01:49:47;5.97;;;4.80;;
14121;SDS011;7139;48.114;11.442;2022-11-03T01:52:19;8.43;;;5.10;;
14121;SDS011;7139;48.114;11.442;2022-11-03T01:54:51;7.63;;;5.47;;
14121;SDS011;7139;48.114;11.442;2022-11-03T01:57:24;7.93;;;5.17;;
14121;SDS011;7139;48.114;11.442;2022-11-03T01:59:55;6.57;;;4.93;;
14121;SDS011;7139;48.114;11.442;2022-11-03T02:02:23;7.40;;;5.27;;
14121;SDS011;7139;48.114;11.442;2022-11-03T02:04:50;7.23;;;5.20;;
14121;SDS011;7139;48.114;11.442;2022-11-03T02:07:20;7.13;;;5.23;;
14121;SDS011;7139;48.114;11.442;2022-11-03T02:09:50;6.00;;;4.90;;
14121;SDS011;7139;48.114;11.442;2022-11-03T02:12:18;6.87;;;5.20;;
14121;SDS011;7139;48.114;11.442;2022-11-03T02:14:48;8.57;;;5.00;;
14121;SDS011;7139;48.114;11.442;2022-11-03T02:17:19;6.07;;;4.83;;
14121;SDS011;7139;48.114;11.442;2022-11-03T02:19:48;6.13;;;4.87;;
14121;SDS011;7139;48.114;11.442;2022-11-03T02:22:29;5.47;;;4.47;;
14121;SDS011;7139;48.114;11.442;2022-11-03T02:25:14;5.20;;;4.67;;
14121;SDS011;7139;48.114;11.442;2022-11-03T02:27:45;6.37;;;4.90;;
14121;SDS011;7139;48.114;11.442;2022-11-03T02:30:12;7.20;;;5.23;;
14121;SDS011;7139;48.114;11.442;2022-11-03T02:32:40;6.17;;;5.07;;
14121;SDS011;7139;48.114;11.442;2022-11-03T02:35:18;7.60;;;5.00;;
14121;SDS011;7139;48.114;11.442;2022-11-03T02:37:48;5.63;;;4.67;;
14121;SDS011;7139;48.114;11.442;2022-11-03T02:40:19;6.33;;;5.17;;
14121;SDS011;7139;48.114;11.442;2022-11-03T02:42:52;5.93;;;5.30;;
14121;SDS011;7139;48.114;11.442;2022-11-03T02:45:21;11.47;;;5.20;;
14121;SDS011;7139;48.114;11.442;2022-11-03T02:47:50;6.80;;;4.77;;
14121;SDS011;7139;48.114;11.442;2022-11-03T02:50:20;4.97;;;4.47;;
14121;SDS011;7139;48.114;11.442;2022-11-03T02:52:52;6.57;;;4.43;;
14121;SDS011;7139;48.114;11.442;2022-11-03T02:55:19;5.63;;;4.50;;
14121;SDS011;7139;48.114;11.442;2022-11-03T02:57:56;5.53;;;4.10;;
14121;SDS011;7139;48.114;11.442;2022-11-03T03:00:30;5.20;;;4.00;;
14121;SDS011;7139;48.114;11.442;2022-11-03T03:03:01;6.60;;;4.10;;
14121;SDS011;7139;48.114;11.442;2022-11-03T03:05:33;6.80;;;4.80;;
14121;SDS011;7139;48.114;11.442;2022-11-03T03:08:02;7.47;;;4.20;;
14121;SDS011;7139;48.114;11.442;2022-11-03T03:10:33;6.23;;;4.10;;
14121;SDS011;7139;48.114;11.442;2022-11-03T03:13:04;6.00;;;4.40;;
14121;SDS011;7139;48.114;11.442;2022-11-03T03:15:35;5.67;;;4.37;;
14121;SDS011;7139;48.114;11.442;2022-11-03T03:18:11;5.73;;;4.40;;
14121;SDS011;7139;48.114;11.442;2022-11-03T03:20:47;6.43;;;4.00;;
14121;SDS011;7139;48.114;11.442;2022-11-03T03:23:20;6.57;;;4.67;;
14121;SDS011;7139;48.114;11.442;2022-11-03T03:25:49;7.37;;;4.30;;
14121;SDS011;7139;48.114;11.442;2022-11-03T03:28:22;6.30;;;4.37;;
14121;SDS011;7139;48.114;11.442;2022-11-03T03:30:50;4.57;;;4.03;;
14121;SDS011;7139;48.114;11.442;2022-11-03T03:33:20;6.60;;;4.40;;
14121;SDS011;7139;48.114;11.442;2022-11-03T03:35:48;6.40;;;4.27;;
14121;SDS011;7139;48.114;11.442;2022-11-03T03:38:17;6.37;;;4.50;;
14121;SDS011;7139;48.114;11.442;2022-11-03T03:40:49;5.80;;;4.00;;
14121;SDS011;7139;48.114;11.442;2022-11-03T03:43:18;5.07;;;4.20;;
14121;SDS011;7139;48.114;11.442;2022-11-03T03:45:48;5.50;;;4.27;;
14121;SDS011;7139;48.114;11.442;2022-11-03T03:48:19;5.00;;;4.10;;
14121;SDS011;7139;48.114;11.442;2022-11-03T03:50:47;5.90;;;4.53;;
14121;SDS011;7139;48.114;11.442;2022-11-03T03:53:15;6.20;;;5.00;;
14121;SDS011;7139;48.114;11.442;2022-11-03T03:55:45;5.60;;;4.43;;
14121;SDS011;7139;48.114;11.442;2022-11-03T03:58:14;5.67;;;4.20;;
14121;SDS011;7139;48.114;11.442;2022-11-03T04:00:41;5.20;;;4.30;;
14121;SDS011;7139;48.114;11.442;2022-11-03T04:03:12;5.37;;;4.40;;
14121;SDS011;7139;48.114;11.442;2022-11-03T04:05:42;5.33;;;4.50;;
14121;SDS011;7139;48.114;11.442;2022-11-03T04:08:10;5.43;;;4.77;;
14121;SDS011;7139;48.114;11.442;2022-11-03T04:10:37;5.70;;;4.70;;
14121;SDS011;7139;48.114;11.442;2022-11-03T04:13:04;6.90;;;4.13;;
14121;SDS011;7139;48.114;11.442;2022-11-03T04:15:49;7.13;;;4.60;;
14121;SDS011;7139;48.114;11.442;2022-11-03T04:18:35;7.10;;;4.47;;
14121;SDS011;7139;48.114;11.442;2022-11-03T04:21:18;6.63;;;4.70;;
14121;SDS011;7139;48.114;11.442;2022-11-03T04:24:02;10.00;;;6.10;;
14121;SDS011;7139;48.114;11.442;2022-11-03T04:26:29;8.30;;;6.00;;
14121;SDS011;7139;48.114;11.442;2022-11-03T04:28:56;8.80;;;5.53;;
14121;SDS011;7139;48.114;11.442;2022-11-03T04:31:24;9.37;;;5.70;;
14121;SDS011;7139;48.114;11.442;2022-11-03T04:33:53;8.93;;;5.80;;
14121;SDS011;7139;48.114;11.442;2022-11-03T04:36:24;9.37;;;5.73;;
14121;SDS011;7139;48.114;11.442;2022-11-03T04:38:51;10.13;;;5.53;;
14121;SDS011;7139;48.114;11.442;2022-11-03T04:41:19;8.80;;;5.23;;
14121;SDS011;7139;48.114;11.442;2022-11-03T04:43:48;7.40;;;5.23;;
14121;SDS011;7139;48.114;11.442;2022-11-03T04:46:16;6.33;;;5.00;;
14121;SDS011;7139;48.114;11.442;2022-11-03T04:48:50;7.13;;;4.37;;
14121;SDS011;7139;48.114;11.442;2022-11-03T04:51:21;5.10;;;4.27;;
14121;SDS011;7139;48.114;11.442;2022-11-03T04:53:51;5.53;;;4.37;;
14121;SDS011;7139;48.114;11.442;2022-11-03T04:56:20;6.40;;;4.33;;
14121;SDS011;7139;48.114;11.442;2022-11-03T04:58:49;6.47;;;4.07;;
14121;SDS011;7139;48.114;11.442;2022-11-03T05:01:17;4.83;;;4.13;;
14121;SDS011;7139;48.114;11.442;2022-11-03T05:03:46;6.37;;;5.03;;
14121;SDS011;7139;48.114;11.442;2022-11-03T05:06:15;6.53;;;5.33;;
14121;SDS011;7139;48.114;11.442;2022-11-03T05:08:46;6.27;;;5.37;;
14121;SDS011;7139;48.114;11.442;2022-11-03T05:11:18;8.70;;;5.40;;
14121;SDS011;7139;48.114;11.442;2022-11-03T05:13:51;7.97;;;4.83;;
14121;SDS011;7139;48.114;11.442;2022-11-03T05:16:18;8.77;;;5.03;;
14121;SDS011;7139;48.114;11.442;2022-11-03T05:18:45;8.77;;;5.37;;
14121;SDS011;7139;48.114;11.442;2022-11-03T05:21:15;8.30;;;4.90;;
14121;SDS011;7139;48.114;11.442;2022-11-03T05:23:46;7.23;;;5.57;;
14121;SDS011;7139;48.114;11.442;2022-11-03T05:26:16;6.93;;;5.77;;
14121;SDS011;7139;48.114;11.442;2022-11-03T05:28:46;10.70;;;5.83;;
14121;SDS011;7139;48.114;11.442;2022-11-03T05:31:20;12.73;;;6.33;;
14121;SDS011;7139;48.114;11.442;2022-11-03T05:33:49;12.23;;;6.60;;
14121;SDS011;7139;48.114;11.442;2022-11-03T05:36:18;10.87;;;7.30;;
14121;SDS011;7139;48.114;11.442;2022-11-03T05:38:48;11.97;;;6.80;;
14121;SDS011;7139;48.114;11.442;2022-11-03T05:41:18;10.97;;;6.53;;
14121;SDS011;7139;48.114;11.442;2022-11-03T05:43:50;10.47;;;7.37;;
14121;SDS011;7139;48.114;11.442;2022-11-03T05:46:20;29.77;;;8.13;;
14121;SDS011;7139;48.114;11.442;2022-11-03T05:48:47;9.27;;;6.93;;
14121;SDS011;7139;48.114;11.442;2022-11-03T05:51:14;10.33;;;6.80;;
14121;SDS011;7139;48.114;11.442;2022-11-03T05:53:45;12.27;;;7.83;;
14121;SDS011;7139;48.114;11.442;2022-11-03T05:56:17;11.33;;;7.80;;
14121;SDS011;7139;48.114;11.442;2022-11-03T05:58:45;9.93;;;7.53;;
14121;SDS011;7139;48.114;11.442;2022-11-03T06:01:15;14.57;;;8.10;;
14121;SDS011;7139;48.114;11.442;2022-11-03T06:03:45;15.90;;;7.83;;
14121;SDS011;7139;48.114;11.442;2022-11-03T06:06:14;12.67;;;7.77;;
14121;SDS011;7139;48.114;11.442;2022-11-03T06:08:43;13.07;;;7.37;;
14121;SDS011;7139;48.114;11.442;2022-11-03T06:11:18;9.40;;;7.50;;
14121;SDS011;7139;48.114;11.442;2022-11-03T06:13:49;9.53;;;7.80;;
14121;SDS011;7139;48.114;11.442;2022-11-03T06:16:25;9.33;;;7.03;;
14121;SDS011;7139;48.114;11.442;2022-11-03T06:19:11;9.83;;;6.83;;
14121;SDS011;7139;48.114;11.442;2022-11-03T06:21:45;11.70;;;7.03;;
14121;SDS011;7139;48.114;11.442;2022-11-03T06:24:12;9.90;;;6.87;;
14121;SDS011;7139;48.114;11.442;2022-11-03T06:26:41;10.93;;;6.60;;
14121;SDS011;7139;48.114;11.442;2022-11-03T06:29:11;25.87;;;6.63;;
14121;SDS011;7139;48.114;11.442;2022-11-03T06:31:39;15.20;;;6.53;;
14121;SDS011;7139;48.114;11.442;2022-11-03T06:34:12;20.50;;;6.90;;
14121;SDS011;7139;48.114;11.442;2022-11-03T06:36:47;11.20;;;6.80;;
14121;SDS011;7139;48.114;11.442;2022-11-03T06:39:15;13.17;;;7.73;;
14121;SDS011;7139;48.114;11.442;2022-11-03T06:41:47;10.60;;;7.27;;
14121;SDS011;7139;48.114;11.442;2022-11-03T06:44:17;10.97;;;7.30;;
14121;SDS011;7139;48.114;11.442;2022-11-03T06:46:47;9.13;;;6.43;;
14121;SDS011;7139;48.114;11.442;2022-11-03T06:49:24;10.07;;;6.33;;
14121;SDS011;7139;48.114;11.442;2022-11-03T06:51:54;12.27;;;6.57;;
14121;SDS011;7139;48.114;11.442;2022-11-03T06:54:21;9.37;;;6.80;;
14121;SDS011;7139;48.114;11.442;2022-11-03T06:56:49;10.23;;;6.13;;
14121;SDS011;7139;48.114;11.442;2022-11-03T06:59:16;10.53;;;5.83;;
14121;SDS011;7139;48.114;11.442;2022-11-03T07:01:44;8.80;;;5.70;;
14121;SDS011;7139;48.114;11.442;2022-11-03T07:04:15;8.63;;;5.53;;
14121;SDS011;7139;48.114;11.442;2022-11-03T07:06:44;7.97;;;5.40;;
14121;SDS011;7139;48.114;11.442;2022-11-03T07:09:12;6.43;;;4.90;;
14121;SDS011;7139;48.114;11.442;2022-11-03T07:11:44;7.53;;;5.40;;
14121;SDS011;7139;48.114;11.442;2022-11-03T07:14:16;7.07;;;5.43;;
14121;SDS011;7139;48.114;11.442;2022-11-03T07:16:45;9.47;;;6.20;;
14121;SDS011;7139;48.114;11.442;2022-11-03T07:19:16;11.70;;;6.23;;
14121;SDS011;7139;48.114;11.442;2022-11-03T07:21:45;12.63;;;7.10;;
14121;SDS011;7139;48.114;11.442;2022-11-03T07:24:15;11.87;;;6.93;;
14121;SDS011;7139;48.114;11.442;2022-11-03T07:26:46;15.47;;;7.67;;
14121;SDS011;7139;48.114;11.442;2022-11-03T07:29:17;13.43;;;7.20;;
14121;SDS011;7139;48.114;11.442;2022-11-03T07:31:46;10.63;;;6.10;;
14121;SDS011;7139;48.114;11.442;2022-11-03T07:34:14;10.27;;;6.40;;
14121;SDS011;7139;48.114;11.442;2022-11-03T07:36:46;6.43;;;5.80;;
14121;SDS011;7139;48.114;11.442;2022-11-03T07:39:16;6.93;;;5.80;;
14121;SDS011;7139;48.114;11.442;2022-11-03T07:41:45;7.00;;;5.60;;
14121;SDS011;7139;48.114;11.442;2022-11-03T07:44:12;7.07;;;5.93;;
14121;SDS011;7139;48.114;11.442;2022-11-03T07:46:45;7.20;;;5.77;;
14121;SDS011;7139;48.114;11.442;2022-11-03T07:49:18;5.97;;;5.07;;
14121;SDS011;7139;48.114;11.442;2022-11-03T07:51:50;7.83;;;5.70;;
14121;SDS011;7139;48.114;11.442;2022-11-03T07:54:18;7.47;;;5.27;;
14121;SDS011;7139;48.114;11.442;2022-11-03T07:56:49;6.03;;;5.27;;
14121;SDS011;7139;48.114;11.442;2022-11-03T07:59:19;6.43;;;5.30;;
14121;SDS011;7139;48.114;11.442;2022-11-03T08:01:50;5.90;;;5.30;;
14121;SDS011;7139;48.114;11.442;2022-11-03T08:04:19;8.07;;;5.13;;
14121;SDS011;7139;48.114;11.442;2022-11-03T08:06:47;6.93;;;5.40;;
14121;SDS011;7139;48.114;11.442;2022-11-03T08:09:15;10.77;;;5.93;;
14121;SDS011;7139;48.114;11.442;2022-11-03T08:11:42;13.00;;;6.37;;
14121;SDS011;7139;48.114;11.442;2022-11-03T08:14:09;12.87;;;5.77;;
14121;SDS011;7139;48.114;11.442;2022-11-03T08:16:36;11.40;;;5.90;;
14121;SDS011;7139;48.114;11.442;2022-11-03T08:19:04;12.07;;;5.47;;
14121;SDS011;7139;48.114;11.442;2022-11-03T08:21:31;11.53;;;5.77;;
14121;SDS011;7139;48.114;11.442;2022-11-03T08:23:58;10.90;;;6.03;;
14121;SDS011;7139;48.114;11.442;2022-11-03T08:26:25;9.80;;;5.73;;
14121;SDS011;7139;48.114;11.442;2022-11-03T08:28:52;11.57;;;5.33;;
14121;SDS011;7139;48.114;11.442;2022-11-03T08:31:18;9.70;;;5.33;;
14121;SDS011;7139;48.114;11.442;2022-11-03T08:33:45;7.17;;;5.17;;
14121;SDS011;7139;48.114;11.442;2022-11-03T08:36:13;10.23;;;5.23;;
14121;SDS011;7139;48.114;11.442;2022-11-03T08:38:40;12.50;;;5.80;;
14121;SDS011;7139;48.114;11.442;2022-11-03T08:41:07;9.43;;;5.50;;
14121;SDS011;7139;48.114;11.442;2022-11-03T08:43:34;12.07;;;5.60;;
14121;SDS011;7139;48.114;11.442;2022-11-03T08:46:00;11.57;;;5.80;;
14121;SDS011;7139;48.114;11.442;2022-11-03T08:48:27;10.00;;;5.73;;
14121;SDS011;7139;48.114;11.442;2022-11-03T08:50:54;9.60;;;5.63;;
14121;SDS011;7139;48.114;11.442;2022-11-03T08:53:23;6.60;;;5.00;;
14121;SDS011;7139;48.114;11.442;2022-11-03T08:55:51;9.70;;;4.80;;
14121;SDS011;7139;48.114;11.442;2022-11-03T08:58:18;9.10;;;5.00;;
14121;SDS011;7139;48.114;11.442;2022-11-03T09:00:45;8.47;;;5.20;;
14121;SDS011;7139;48.114;11.442;2022-11-03T09:03:12;7.63;;;4.83;;
14121;SDS011;7139;48.114;11.442;2022-11-03T09:05:38;7.83;;;4.97;;
14121;SDS011;7139;48.114;11.442;2022-11-03T09:08:06;12.50;;;5.83;;
14121;SDS011;7139;48.114;11.442;2022-11-03T09:10:34;8.37;;;5.03;;
14121;SDS011;7139;48.114;11.442;2022-11-03T09:13:01;7.07;;;5.03;;
14121;SDS011;7139;48.114;11.442;2022-11-03T09:15:27;8.80;;;5.33;;
14121;SDS011;7139;48.114;11.442;2022-11-03T09:17:54;8.30;;;5.57;;
14121;SDS011;7139;48.114;11.442;2022-11-03T09:20:21;6.60;;;4.80;;
14121;SDS011;7139;48.114;11.442;2022-11-03T09:22:48;7.07;;;5.30;;
14121;SDS011;7139;48.114;11.442;2022-11-03T09:25:15;8.77;;;5.20;;
14121;SDS011;7139;48.114;11.442;2022-11-03T09:27:43;9.47;;;5.37;;
14121;SDS011;7139;48.114;11.442;2022-11-03T09:30:10;5.90;;;4.97;;
14121;SDS011;7139;48.114;11.442;2022-11-03T09:32:37;10.67;;;5.37;;
14121;SDS011;7139;48.114;11.442;2022-11-03T09:35:05;7.33;;;4.83;;
14121;SDS011;7139;48.114;11.442;2022-11-03T09:37:32;5.30;;;4.80;;
14121;SDS011;7139;48.114;11.442;2022-11-03T09:39:59;8.10;;;5.17;;
14121;SDS011;7139;48.114;11.442;2022-11-03T09:42:28;5.87;;;4.30;;
14121;SDS011;7139;48.114;11.442;2022-11-03T09:44:59;7.70;;;5.00;;
14121;SDS011;7139;48.114;11.442;2022-11-03T09:47:27;6.80;;;4.80;;
14121;SDS011;7139;48.114;11.442;2022-11-03T09:49:57;6.40;;;4.53;;
14121;SDS011;7139;48.114;11.442;2022-11-03T09:52:24;6.00;;;4.60;;
14121;SDS011;7139;48.114;11.442;2022-11-03T09:54:51;8.23;;;4.60;;
14121;SDS011;7139;48.114;11.442;2022-11-03T09:57:20;6.20;;;4.47;;
14121;SDS011;7139;48.114;11.442;2022-11-03T09:59:48;7.20;;;4.33;;
14121;SDS011;7139;48.114;11.442;2022-11-03T10:02:20;9.37;;;4.90;;
14121;SDS011;7139;48.114;11.442;2022-11-03T10:04:50;7.77;;;4.63;;
14121;SDS011;7139;48.114;11.442;2022-11-03T10:07:18;8.90;;;4.70;;
14121;SDS011;7139;48.114;11.442;2022-11-03T10:09:47;7.10;;;4.60;;
14121;SDS011;7139;48.114;11.442;2022-11-03T10:12:16;7.10;;;4.50;;
14121;SDS011;7139;48.114;11.442;2022-11-03T10:14:43;8.17;;;5.53;;
14121;SDS011;7139;48.114;11.442;2022-11-03T10:17:13;10.03;;;5.40;;
14121;SDS011;7139;48.114;11.442;2022-11-03T10:19:43;8.47;;;5.40;;
14121;SDS011;7139;48.114;11.442;2022-11-03T10:22:12;7.87;;;5.10;;
14121;SDS011;7139;48.114;11.442;2022-11-03T10:24:39;8.33;;;5.40;;
14121;SDS011;7139;48.114;11.442;2022-11-03T10:27:18;10.07;;;5.70;;
14121;SDS011;7139;48.114;11.442;2022-11-03T10:30:02;10.30;;;5.10;;
14121;SDS011;7139;48.114;11.442;2022-11-03T10:32:31;8.70;;;5.17;;
14121;SDS011;7139;48.114;11.442;2022-11-03T10:35:00;9.43;;;5.40;;
14121;SDS011;7139;48.114;11.442;2022-11-03T10:37:27;11.43;;;5.90;;
14121;SDS011;7139;48.114;11.442;2022-11-03T10:39:54;9.10;;;5.77;;
14121;SDS011;7139;48.114;11.442;2022-11-03T10:42:23;8.50;;;5.10;;
14121;SDS011;7139;48.114;11.442;2022-11-03T10:44:51;9.67;;;5.10;;
14121;SDS011;7139;48.114;11.442;2022-11-03T10:47:30;8.90;;;5.03;;
14121;SDS011;7139;48.114;11.442;2022-11-03T10:49:58;8.63;;;5.23;;
14121;SDS011;7139;48.114;11.442;2022-11-03T10:52:37;7.63;;;5.13;;
14121;SDS011;7139;48.114;11.442;2022-11-03T10:55:04;11.00;;;5.37;;
14121;SDS011;7139;48.114;11.442;2022-11-03T10:57:32;6.50;;;4.53;;
14121;SDS011;7139;48.114;11.442;2022-11-03T10:59:59;7.47;;;4.90;;
14121;SDS011;7139;48.114;11.442;2022-11-03T11:02:28;9.83;;;5.07;;
14121;SDS011;7139;48.114;11.442;2022-11-03T11:04:57;7.80;;;4.47;;
14121;SDS011;7139;48.114;11.442;2022-11-03T11:07:30;6.50;;;4.47;;
14121;SDS011;7139;48.114;11.442;2022-11-03T11:10:03;5.97;;;3.80;;
14121;SDS011;7139;48.114;11.442;2022-11-03T11:12:32;5.10;;;3.90;;
14121;SDS011;7139;48.114;11.442;2022-11-03T11:14:59;5.07;;;3.90;;
14121;SDS011;7139;48.114;11.442;2022-11-03T11:17:38;7.37;;;4.47;;
14121;SDS011;7139;48.114;11.442;2022-11-03T11:20:17;11.77;;;6.77;;
14121;SDS011;7139;48.114;11.442;2022-11-03T11:35:15;8.67;;;7.13;;
14121;SDS011;7139;48.114;11.442;2022-11-03T11:37:43;9.80;;;7.17;;
14121;SDS011;7139;48.114;11.442;2022-11-03T11:40:11;9.27;;;7.37;;
14121;SDS011;7139;48.114;11.442;2022-11-03T11:49:16;10.63;;;7.50;;
14121;SDS011;7139;48.114;11.442;2022-11-03T11:51:44;10.13;;;7.70;;
14121;SDS011;7139;48.114;11.442;2022-11-03T11:54:12;9.67;;;7.20;;
14121;SDS011;7139;48.114;11.442;2022-11-03T11:56:42;11.20;;;7.70;;
14121;SDS011;7139;48.114;11.442;2022-11-03T11:59:14;9.50;;;7.17;;
14121;SDS011;7139;48.114;11.442;2022-11-03T12:01:43;8.60;;;7.30;;
14121;SDS011;7139;48.114;11.442;2022-11-03T12:04:16;9.70;;;8.00;;
14121;SDS011;7139;48.114;11.442;2022-11-03T12:06:46;9.47;;;7.73;;
14121;SDS011;7139;48.114;11.442;2022-11-03T12:09:14;10.00;;;8.13;;
14121;SDS011;7139;48.114;11.442;2022-11-03T12:11:43;13.83;;;8.63;;
14121;SDS011;7139;48.114;11.442;2022-11-03T12:14:20;10.37;;;7.80;;
14121;SDS011;7139;48.114;11.442;2022-11-03T12:16:49;8.97;;;8.10;;
14121;SDS011;7139;48.114;11.442;2022-11-03T12:19:36;11.07;;;8.47;;
14121;SDS011;7139;48.114;11.442;2022-11-03T12:22:05;14.23;;;10.63;;
14121;SDS011;7139;48.114;11.442;2022-11-03T12:24:38;10.63;;;9.47;;
14121;SDS011;7139;48.114;11.442;2022-11-03T12:27:17;12.47;;;8.73;;
14121;SDS011;7139;48.114;11.442;2022-11-03T12:30:05;13.90;;;9.23;;
14121;SDS011;7139;48.114;11.442;2022-11-03T12:32:39;11.33;;;9.77;;
14121;SDS011;7139;48.114;11.442;2022-11-03T12:35:06;11.80;;;10.60;;
14121;SDS011;7139;48.114;11.442;2022-11-03T12:37:35;12.67;;;9.77;;
14121;SDS011;7139;48.114;11.442;2022-11-03T12:40:02;11.10;;;10.00;;
14121;SDS011;7139;48.114;11.442;2022-11-03T12:42:30;10.37;;;9.27;;
14121;SDS011;7139;48.114;11.442;2022-11-03T12:44:57;12.33;;;9.57;;
14121;SDS011;7139;48.114;11.442;2022-11-03T12:47:24;13.90;;;9.80;;
14121;SDS011;7139;48.114;11.442;2022-11-03T12:49:52;11.47;;;8.93;;
14121;SDS011;7139;48.114;11.442;2022-11-03T12:52:18;13.57;;;9.70;;
14121;SDS011;7139;48.114;11.442;2022-11-03T12:54:45;12.73;;;9.07;;
14121;SDS011;7139;48.114;11.442;2022-11-03T12:57:12;12.20;;;9.27;;
14121;SDS011;7139;48.114;11.442;2022-11-03T12:59:39;12.43;;;8.73;;
14121;SDS011;7139;48.114;11.442;2022-11-03T13:02:06;14.47;;;9.53;;
14121;SDS011;7139;48.114;11.442;2022-11-03T13:04:34;13.20;;;9.50;;
14121;SDS011;7139;48.114;11.442;2022-11-03T13:07:03;15.17;;;9.33;;
14121;SDS011;7139;48.114;11.442;2022-11-03T13:09:30;12.33;;;9.70;;
14121;SDS011;7139;48.114;11.442;2022-11-03T13:11:59;10.60;;;9.30;;
14121;SDS011;7139;48.114;11.442;2022-11-03T13:14:44;13.40;;;9.27;;
14121;SDS011;7139;48.114;11.442;2022-11-03T13:17:10;11.40;;;9.03;;
14121;SDS011;7139;48.114;11.442;2022-11-03T13:19:37;14.57;;;9.23;;
14121;SDS011;7139;48.114;11.442;2022-11-03T13:22:05;15.10;;;9.20;;
14121;SDS011;7139;48.114;11.442;2022-11-03T13:24:32;15.30;;;9.53;;
14121;SDS011;7139;48.114;11.442;2022-11-03T13:26:59;13.80;;;8.73;;
14121;SDS011;7139;48.114;11.442;2022-11-03T13:29:26;11.33;;;9.20;;
14121;SDS011;7139;48.114;11.442;2022-11-03T13:31:53;11.27;;;8.83;;
14121;SDS011;7139;48.114;11.442;2022-11-03T13:34:22;11.20;;;8.93;;
14121;SDS011;7139;48.114;11.442;2022-11-03T13:36:49;9.53;;;8.53;;
14121;SDS011;7139;48.114;11.442;2022-11-03T13:39:17;10.67;;;8.10;;
14121;SDS011;7139;48.114;11.442;2022-11-03T13:41:44;10.87;;;8.50;;
14121;SDS011;7139;48.114;11.442;2022-11-03T13:44:10;12.27;;;8.60;;
14121;SDS011;7139;48.114;11.442;2022-11-03T13:46:37;9.07;;;7.27;;
14121;SDS011;7139;48.114;11.442;2022-11-03T13:49:04;9.17;;;7.57;;
14121;SDS011;7139;48.114;11.442;2022-11-03T13:51:31;13.67;;;8.80;;
14121;SDS011;7139;48.114;11.442;2022-11-03T13:53:58;11.33;;;7.77;;
14121;SDS011;7139;48.114;11.442;2022-11-03T13:56:26;12.03;;;8.33;;
14121;SDS011;7139;48.114;11.442;2022-11-03T13:58:52;11.80;;;8.30;;
14121;SDS011;7139;48.114;11.442;2022-11-03T14:01:19;12.33;;;8.53;;
14121;SDS011;7139;48.114;11.442;2022-11-03T14:03:46;14.30;;;10.03;;
14121;SDS011;7139;48.114;11.442;2022-11-03T14:06:13;12.70;;;9.07;;
14121;SDS011;7139;48.114;11.442;2022-11-03T14:08:40;12.10;;;8.37;;
14121;SDS011;7139;48.114;11.442;2022-11-03T14:11:06;10.23;;;8.23;;
14121;SDS011;7139;48.114;11.442;2022-11-03T14:13:52;13.87;;;8.43;;
14121;SDS011;7139;48.114;11.442;2022-11-03T14:16:19;9.30;;;8.13;;
14121;SDS011;7139;48.114;11.442;2022-11-03T14:18:45;9.53;;;8.10;;
14121;SDS011;7139;48.114;11.442;2022-11-03T14:21:12;11.87;;;7.70;;
14121;SDS011;7139;48.114;11.442;2022-11-03T14:23:39;12.70;;;7.80;;
14121;SDS011;7139;48.114;11.442;2022-11-03T14:26:06;13.20;;;8.03;;
14121;SDS011;7139;48.114;11.442;2022-11-03T14:28:33;12.70;;;8.50;;
14121;SDS011;7139;48.114;11.442;2022-11-03T14:31:01;10.30;;;8.67;;
14121;SDS011;7139;48.114;11.442;2022-11-03T14:33:29;9.93;;;8.60;;
14121;SDS011;7139;48.114;11.442;2022-11-03T14:35:56;11.83;;;8.57;;
14121;SDS011;7139;48.114;11.442;2022-11-03T14:38:23;9.70;;;7.50;;
14121;SDS011;7139;48.114;11.442;2022-11-03T14:40:50;11.20;;;8.30;;
14121;SDS011;7139;48.114;11.442;2022-11-03T14:43:34;9.73;;;7.70;;
14121;SDS011;7139;48.114;11.442;2022-11-03T14:46:02;11.63;;;8.17;;
14121;SDS011;7139;48.114;11.442;2022-11-03T14:48:29;12.37;;;7.97;;
14121;SDS011;7139;48.114;11.442;2022-11-03T14:50:55;11.50;;;8.50;;
14121;SDS011;7139;48.114;11.442;2022-11-03T14:53:22;12.40;;;8.03;;
14121;SDS011;7139;48.114;11.442;2022-11-03T14:55:49;12.63;;;8.40;;
14121;SDS011;7139;48.114;11.442;2022-11-03T14:58:16;9.70;;;8.47;;
14121;SDS011;7139;48.114;11.442;2022-11-03T15:00:43;9.57;;;7.97;;
14121;SDS011;7139;48.114;11.442;2022-11-03T15:03:11;9.23;;;8.27;;
14121;SDS011;7139;48.114;11.442;2022-11-03T15:05:38;14.13;;;8.50;;
14121;SDS011;7139;48.114;11.442;2022-11-03T15:08:11;12.57;;;8.73;;
14121;SDS011;7139;48.114;11.442;2022-11-03T15:10:38;13.13;;;8.43;;
14121;SDS011;7139;48.114;11.442;2022-11-03T15:13:05;11.63;;;8.27;;
14121;SDS011;7139;48.114;11.442;2022-11-03T15:15:32;11.33;;;8.13;;
14121;SDS011;7139;48.114;11.442;2022-11-03T15:18:00;9.37;;;7.43;;